createdAt,value
2022-08-27T00:01:22.611Z,99996.47
2022-08-27T00:04:07.270Z,99997.02
2022-08-27T00:06:52.119Z,99990.31
2022-08-27T00:09:48.124Z,99989.52
2022-08-27T00:12:25.446Z,99985.38
2022-08-27T00:15:19.559Z,99978.38
2022-08-27T00:18:14.272Z,99974.26
2022-08-27T00:21:08.515Z,99970.55
2022-08-27T00:23:45.491Z,99964.45
2022-08-27T00:26:43.188Z,99963.98
2022-08-27T00:29:20.378Z,99964.17
2022-08-27T00:32:14.332Z,99959.86
2022-08-27T00:34:52.151Z,99959.47
2022-08-27T00:37:25.920Z,99962.14
2022-08-27T00:39:59.676Z,99963.06
2022-08-27T00:42:53.803Z,99964.53
2022-08-27T00:45:27.872Z,99967.00
2022-08-27T00:48:03.252Z,99968.02
2022-08-27T00:50:39.236Z,99968.72
2022-08-27T00:53:17.603Z,99975.09
2022-08-27T00:55:56.837Z,99968.59
2022-08-27T00:58:53.297Z,99967.16
2022-08-27T01:01:31.033Z,99967.00
2022-08-27T01:04:25.018Z,99961.65
2022-08-27T01:06:58.900Z,99962.06
2022-08-27T01:09:53.831Z,99959.89
2022-08-27T01:12:27.578Z,99963.31
2022-08-27T01:15:02.116Z,99957.35
2022-08-27T01:17:36.404Z,99958.63
2022-08-27T01:20:16.420Z,99956.40
2022-08-27T01:23:12.067Z,99958.11
2022-08-27T01:25:47.182Z,99955.34
2022-08-27T01:28:35.813Z,99958.20
2022-08-27T01:31:13.534Z,99955.02
2022-08-27T01:34:09.195Z,99954.81
2022-08-27T01:36:42.836Z,99951.20
2022-08-27T01:39:25.849Z,99950.94
2022-08-27T01:42:06.893Z,99949.63
2022-08-27T01:44:51.282Z,99951.94
2022-08-27T01:47:31.442Z,99951.47
2022-08-27T01:50:11.249Z,99949.91
2022-08-27T01:52:45.370Z,99948.48
2022-08-27T01:55:21.046Z,99950.06
2022-08-27T01:57:55.455Z,99949.68
2022-08-27T02:00:32.064Z,99949.91
2022-08-27T02:03:06.796Z,99950.81
2022-08-27T02:05:44.936Z,99947.96
2022-08-27T02:08:22.692Z,99944.98
2022-08-27T02:10:56.628Z,99945.95
2022-08-27T02:13:30.442Z,99943.09
2022-08-27T02:16:04.450Z,99940.79
2022-08-27T02:18:41.753Z,99939.69
2022-08-27T02:21:20.636Z,99942.89
2022-08-27T02:23:55.515Z,99939.27
2022-08-27T02:26:32.048Z,99939.28
2022-08-27T02:29:06.119Z,99937.48
2022-08-27T02:32:00.268Z,99942.55
2022-08-27T02:34:33.343Z,99947.39
2022-08-27T02:37:07.671Z,99950.33
2022-08-27T02:39:45.592Z,99953.34
2022-08-27T02:42:19.913Z,99953.77
2022-08-27T02:44:57.191Z,99953.20
2022-08-27T02:47:39.514Z,99950.95
2022-08-27T02:50:17.569Z,99952.08
2022-08-27T02:52:51.284Z,99954.20
2022-08-27T02:55:25.587Z,99956.16
2022-08-27T02:57:59.357Z,99953.48
2022-08-27T03:00:35.520Z,99950.13
2022-08-27T03:03:11.039Z,99947.20
2022-08-27T03:05:46.185Z,99947.72
2022-08-27T03:08:19.596Z,99947.84
2022-08-27T03:10:57.091Z,99948.98
2022-08-27T03:13:32.695Z,99948.02
2022-08-27T03:16:06.671Z,99948.33
2022-08-27T03:18:43.843Z,99948.30
2022-08-27T03:21:24.598Z,99946.51
2022-08-27T03:24:18.693Z,99948.43
2022-08-27T03:26:54.940Z,99947.52
2022-08-27T03:29:31.435Z,99945.60
2022-08-27T03:32:10.708Z,99947.77
2022-08-27T03:34:58.584Z,99944.45
2022-08-27T03:37:32.336Z,99935.71
2022-08-27T03:40:08.466Z,99937.69
2022-08-27T03:42:42.475Z,99938.23
2022-08-27T03:45:27.668Z,99943.69
2022-08-27T03:48:01.359Z,99944.34
2022-08-27T03:50:35.171Z,99942.53
2022-08-27T03:53:08.992Z,99943.11
2022-08-27T03:55:42.867Z,99942.51
2022-08-27T03:58:19.760Z,99941.89
2022-08-27T04:00:53.605Z,99942.00
2022-08-27T04:03:27.364Z,99941.02
2022-08-27T04:06:03.802Z,99941.25
2022-08-27T04:08:39.632Z,99937.37
2022-08-27T04:11:34.995Z,99938.91
2022-08-27T04:14:20.756Z,99945.48
2022-08-27T04:17:20.959Z,99946.70
2022-08-27T04:19:56.241Z,99944.55
2022-08-27T04:22:30.677Z,99943.89
2022-08-27T04:25:04.631Z,99944.42
2022-08-27T04:27:47.609Z,99940.58
2022-08-27T04:30:21.544Z,99940.38
2022-08-27T04:32:55.342Z,99939.02
2022-08-27T04:35:29.099Z,99936.50
2022-08-27T04:38:02.923Z,99941.80
2022-08-27T04:40:56.057Z,99942.74
2022-08-27T04:43:32.066Z,99945.55
2022-08-27T04:46:09.260Z,99946.83
2022-08-27T04:48:46.068Z,99947.10
2022-08-27T04:51:28.215Z,99948.02
2022-08-27T04:54:03.115Z,99941.42
2022-08-27T04:56:38.309Z,99939.73
2022-08-27T04:59:13.385Z,99938.12
2022-08-27T05:02:11.224Z,99937.98
2022-08-27T05:04:45.254Z,99938.77
2022-08-27T05:07:19.674Z,99941.12
2022-08-27T05:09:55.928Z,99941.58
2022-08-27T05:12:29.163Z,99945.62
2022-08-27T05:15:02.994Z,99943.55
2022-08-27T05:18:01.211Z,99945.51
2022-08-27T05:20:35.743Z,99942.14
2022-08-27T05:23:09.393Z,99938.29
2022-08-27T05:25:52.555Z,99932.90
2022-08-27T05:28:27.764Z,99931.78
2022-08-27T05:31:10.232Z,99932.20
2022-08-27T05:33:47.902Z,99934.04
2022-08-27T05:36:23.208Z,99932.36
2022-08-27T05:38:58.320Z,99936.16
2022-08-27T05:41:33.989Z,99935.98
2022-08-27T05:44:40.012Z,99938.46
2022-08-27T05:47:23.324Z,99938.48
2022-08-27T05:49:57.362Z,99940.48
2022-08-27T05:52:41.342Z,99938.20
2022-08-27T05:55:15.495Z,99934.89
2022-08-27T05:57:48.921Z,99939.52
2022-08-27T06:00:40.415Z,99941.46
2022-08-27T06:03:17.423Z,99937.08
2022-08-27T06:05:51.178Z,99942.33
2022-08-27T06:08:25.269Z,99936.36
2022-08-27T06:11:00.203Z,99935.33
2022-08-27T06:13:34.568Z,99932.50
2022-08-27T06:16:14.618Z,99929.52
2022-08-27T06:18:49.859Z,99929.95
2022-08-27T06:21:24.962Z,99931.95
2022-08-27T06:23:58.943Z,99936.00
2022-08-27T06:26:32.566Z,99938.27
2022-08-27T06:29:10.250Z,99939.17
2022-08-27T06:31:44.156Z,99937.50
2022-08-27T06:34:21.033Z,99941.13
2022-08-27T06:36:55.028Z,99943.23
2022-08-27T06:39:31.733Z,99941.13
2022-08-27T06:42:06.723Z,99934.78
2022-08-27T06:44:40.582Z,99934.36
2022-08-27T06:47:14.498Z,99934.88
2022-08-27T06:49:48.383Z,99935.20
2022-08-27T06:52:21.946Z,99935.64
2022-08-27T06:54:55.980Z,99941.60
2022-08-27T06:57:30.206Z,99945.31
2022-08-27T07:00:05.046Z,99955.30
2022-08-27T07:02:39.178Z,99960.77
2022-08-27T07:05:13.481Z,99964.11
2022-08-27T07:07:48.810Z,99961.80
2022-08-27T07:10:22.471Z,99964.90
2022-08-27T07:12:55.699Z,99958.52
2022-08-27T07:15:29.480Z,99959.39
2022-08-27T07:18:06.051Z,99954.84
2022-08-27T07:20:41.673Z,99957.77
2022-08-27T07:23:15.332Z,99956.70
2022-08-27T07:25:48.601Z,99956.03
2022-08-27T07:28:22.255Z,99951.23
2022-08-27T07:30:55.943Z,99957.79
2022-08-27T07:33:31.813Z,99956.35
2022-08-27T07:36:05.500Z,99955.48
2022-08-27T07:38:42.251Z,99958.73
2022-08-27T07:41:16.312Z,99957.13
2022-08-27T07:44:07.268Z,99956.11
2022-08-27T07:46:42.575Z,99952.39
2022-08-27T07:49:19.564Z,99947.10
2022-08-27T07:51:55.958Z,99944.75
2022-08-27T07:54:29.593Z,99943.73
2022-08-27T07:57:02.823Z,99942.29
2022-08-27T07:59:36.273Z,99935.15
2022-08-27T08:02:09.675Z,99939.40
2022-08-27T08:04:43.057Z,99932.90
2022-08-27T08:07:16.449Z,99928.21
2022-08-27T08:09:49.822Z,99929.97
2022-08-27T08:12:26.574Z,99926.43
2022-08-27T08:14:59.709Z,99929.16
2022-08-27T08:17:38.347Z,99925.00
2022-08-27T08:20:24.140Z,99927.58
2022-08-27T08:23:04.470Z,99928.16
2022-08-27T08:25:43.376Z,99927.14
2022-08-27T08:28:16.730Z,99929.92
2022-08-27T08:30:50.513Z,99930.63
2022-08-27T08:33:24.635Z,99929.55
2022-08-27T08:36:03.849Z,99926.58
2022-08-27T08:38:38.021Z,99925.61
2022-08-27T08:41:27.948Z,99926.95
2022-08-27T08:44:10.379Z,99926.02
2022-08-27T08:46:51.557Z,99930.48
2022-08-27T08:49:37.263Z,99929.04
2022-08-27T08:52:31.316Z,99933.41
2022-08-27T08:55:16.180Z,99927.76
2022-08-27T08:58:11.235Z,99927.52
2022-08-27T09:00:56.589Z,99927.63
2022-08-27T09:03:37.015Z,99927.55
2022-08-27T09:06:21.581Z,99925.77
2022-08-27T09:09:23.705Z,99923.48
2022-08-27T09:12:15.898Z,99921.17
2022-08-27T09:14:53.974Z,99924.63
2022-08-27T09:17:33.868Z,99923.52
2022-08-27T09:20:13.405Z,99923.94
2022-08-27T09:22:59.244Z,99921.45
2022-08-27T09:25:38.019Z,99918.71
2022-08-27T09:28:39.005Z,99921.20
2022-08-27T09:31:19.010Z,99920.73
2022-08-27T09:33:55.789Z,99920.45
2022-08-27T09:36:33.540Z,99920.09
2022-08-27T09:39:09.935Z,99913.35
2022-08-27T09:41:49.851Z,99909.42
2022-08-27T09:44:28.943Z,99913.15
2022-08-27T09:47:04.836Z,99913.58
2022-08-27T09:49:41.967Z,99913.53
2022-08-27T09:52:38.030Z,99911.75
2022-08-27T09:55:34.477Z,99908.30
2022-08-27T09:58:28.024Z,99907.99
2022-08-27T10:01:07.348Z,99907.48
2022-08-27T10:03:42.653Z,99902.45
2022-08-27T10:06:16.272Z,99899.19
2022-08-27T10:08:57.988Z,99900.65
2022-08-27T10:11:36.302Z,99896.91
2022-08-27T10:14:16.643Z,99899.91
2022-08-27T10:17:04.088Z,99900.10
2022-08-27T10:19:50.275Z,99896.42
2022-08-27T10:22:38.371Z,99892.45
2022-08-27T10:25:24.873Z,99888.66
2022-08-27T10:28:07.152Z,99886.90
2022-08-27T10:30:56.404Z,99887.39
2022-08-27T10:33:46.690Z,99887.80
2022-08-27T10:36:52.459Z,99892.48
2022-08-27T10:39:40.563Z,99883.05
2022-08-27T10:42:22.359Z,99884.34
2022-08-27T10:45:06.036Z,99878.63
2022-08-27T10:47:57.425Z,99877.90
2022-08-27T10:50:41.189Z,99873.24
2022-08-27T10:53:25.923Z,99870.26
2022-08-27T10:56:13.907Z,99870.70
2022-08-27T10:59:04.867Z,99867.09
2022-08-27T11:01:53.868Z,99866.25
2022-08-27T11:04:42.870Z,99867.05
2022-08-27T11:07:24.293Z,99868.86
2022-08-27T11:10:02.397Z,99867.09
2022-08-27T11:13:01.242Z,99867.56
2022-08-27T11:15:37.931Z,99865.45
2022-08-27T11:18:18.129Z,99862.56
2022-08-27T11:21:00.141Z,99864.06
2022-08-27T11:23:43.849Z,99862.05
2022-08-27T11:26:18.453Z,99861.35
2022-08-27T11:28:57.591Z,99856.85
2022-08-27T11:31:44.258Z,99857.66
2022-08-27T11:34:23.957Z,99860.13
2022-08-27T11:37:16.222Z,99858.72
2022-08-27T11:40:05.933Z,99858.52
2022-08-27T11:42:48.907Z,99856.65
2022-08-27T11:45:31.322Z,99855.50
2022-08-27T11:48:19.128Z,99859.23
2022-08-27T11:51:02.626Z,99858.21
2022-08-27T11:53:42.786Z,99856.23
2022-08-27T11:56:43.539Z,99856.23
2022-08-27T11:59:24.683Z,99852.50
2022-08-27T12:02:22.902Z,99852.27
2022-08-27T12:05:09.094Z,99853.61
2022-08-27T12:07:46.528Z,99851.95
2022-08-27T12:10:40.323Z,99855.44
2022-08-27T12:13:24.729Z,99847.60
2022-08-27T12:16:06.703Z,99847.00
2022-08-27T12:19:02.797Z,99840.39
2022-08-27T12:21:58.228Z,99841.92
2022-08-27T12:24:50.401Z,99845.54
2022-08-27T12:27:36.697Z,99844.20
2022-08-27T12:30:24.759Z,99842.70
2022-08-27T12:33:01.397Z,99842.63
2022-08-27T12:35:44.778Z,99839.44
2022-08-27T12:38:21.829Z,99838.49
2022-08-27T12:41:04.065Z,99838.20
2022-08-27T12:43:44.042Z,99839.00
2022-08-27T12:46:20.827Z,99834.39
2022-08-27T12:49:12.750Z,99831.39
2022-08-27T12:52:05.046Z,99832.83
2022-08-27T12:55:16.244Z,99831.58
2022-08-27T12:57:58.436Z,99829.98
2022-08-27T13:01:04.304Z,99827.41
2022-08-27T13:03:45.116Z,99833.89
2022-08-27T13:06:29.097Z,99834.77
2022-08-27T13:09:11.329Z,99828.82
2022-08-27T13:11:56.289Z,99825.51
2022-08-27T13:14:37.971Z,99824.40
2022-08-27T13:17:16.609Z,99829.27
2022-08-27T13:19:59.423Z,99831.15
2022-08-27T13:22:45.211Z,99825.09
2022-08-27T13:25:27.936Z,99823.83
2022-08-27T13:28:10.317Z,99826.81
2022-08-27T13:30:47.011Z,99824.46
2022-08-27T13:33:24.085Z,99825.92
2022-08-27T13:36:03.928Z,99822.49
2022-08-27T13:38:40.979Z,99823.02
2022-08-27T13:41:37.081Z,99826.72
2022-08-27T13:44:25.919Z,99824.52
2022-08-27T13:47:18.876Z,99824.34
2022-08-27T13:50:09.245Z,99823.31
2022-08-27T13:52:58.739Z,99819.44
2022-08-27T13:55:34.004Z,99817.43
2022-08-27T13:58:25.388Z,99819.68
2022-08-27T14:01:09.037Z,99821.29
2022-08-27T14:03:52.631Z,99819.91
2022-08-27T14:06:36.008Z,99819.11
2022-08-27T14:09:18.513Z,99812.39
2022-08-27T14:12:00.293Z,99809.42
2022-08-27T14:14:37.971Z,99806.93
2022-08-27T14:17:29.813Z,99805.16
2022-08-27T14:20:09.302Z,99804.64
2022-08-27T14:22:43.001Z,99803.35
2022-08-27T14:25:22.476Z,99804.54
2022-08-27T14:27:57.600Z,99800.23
2022-08-27T14:30:31.784Z,99800.00
2022-08-27T14:33:05.527Z,99802.16
2022-08-27T14:35:40.007Z,99801.02
2022-08-27T14:38:24.037Z,99800.85
2022-08-27T14:41:00.000Z,99801.14
2022-08-27T14:43:35.079Z,99800.60
2022-08-27T14:46:14.161Z,99794.94
2022-08-27T14:48:51.651Z,99797.41
2022-08-27T14:51:28.237Z,99795.29
2022-08-27T14:54:02.260Z,99798.94
2022-08-27T14:56:35.640Z,99797.25
2022-08-27T14:59:09.336Z,99796.78
2022-08-27T15:01:43.141Z,99793.50
2022-08-27T15:04:23.014Z,99792.40
2022-08-27T15:06:56.884Z,99791.48
2022-08-27T15:09:31.426Z,99791.54
2022-08-27T15:12:08.293Z,99789.73
2022-08-27T15:14:59.729Z,99790.85
2022-08-27T15:17:34.998Z,99785.08
2022-08-27T15:20:13.712Z,99787.66
2022-08-27T15:22:55.284Z,99788.00
2022-08-27T15:25:33.778Z,99792.87
2022-08-27T15:28:08.233Z,99789.98
2022-08-27T15:30:42.526Z,99791.36
2022-08-27T15:33:16.226Z,99789.28
2022-08-27T15:35:50.444Z,99791.69
2022-08-27T15:38:24.102Z,99788.63
2022-08-27T15:40:58.200Z,99786.13
2022-08-27T15:43:32.092Z,99787.67
2022-08-27T15:46:06.465Z,99784.72
2022-08-27T15:48:40.483Z,99786.20
2022-08-27T15:51:14.991Z,99782.93
2022-08-27T15:53:48.320Z,99781.79
2022-08-27T15:56:23.841Z,99780.84
2022-08-27T15:58:57.668Z,99779.40
2022-08-27T16:01:33.782Z,99779.63
2022-08-27T16:04:07.947Z,99775.52
2022-08-27T16:06:42.394Z,99777.14
2022-08-27T16:09:18.952Z,99779.63
2022-08-27T16:11:52.330Z,99778.73
2022-08-27T16:14:29.096Z,99776.41
2022-08-27T16:17:13.402Z,99778.05
2022-08-27T16:19:47.157Z,99779.76
2022-08-27T16:22:20.937Z,99776.69
2022-08-27T16:24:54.708Z,99777.66
2022-08-27T16:27:37.917Z,99777.34
2022-08-27T16:30:14.460Z,99779.35
2022-08-27T16:32:52.495Z,99778.96
2022-08-27T16:35:26.150Z,99779.61
2022-08-27T16:38:00.072Z,99782.42
2022-08-27T16:40:40.489Z,99779.92
2022-08-27T16:43:22.941Z,99778.05
2022-08-27T16:46:17.577Z,99780.77
2022-08-27T16:49:09.001Z,99777.45
2022-08-27T16:51:46.436Z,99782.36
2022-08-27T16:54:39.901Z,99781.29
2022-08-27T16:57:13.876Z,99783.45
2022-08-27T16:59:47.383Z,99780.88
2022-08-27T17:02:30.557Z,99781.42
2022-08-27T17:05:30.539Z,99779.30
2022-08-27T17:08:02.452Z,99784.39
2022-08-27T17:10:40.280Z,99786.44
2022-08-27T17:13:15.904Z,99787.38
2022-08-27T17:15:57.583Z,99793.59
2022-08-27T17:18:32.306Z,99792.20
2022-08-27T17:21:08.638Z,99802.73
2022-08-27T17:23:47.832Z,99801.42
2022-08-27T17:26:22.066Z,99804.08
2022-08-27T17:29:04.254Z,99810.45
2022-08-27T17:31:43.224Z,99809.93
2022-08-27T17:34:21.257Z,99811.73
2022-08-27T17:36:55.388Z,99816.41
2022-08-27T17:39:31.267Z,99818.60
2022-08-27T17:42:26.426Z,99819.11
2022-08-27T17:45:11.023Z,99821.13
2022-08-27T17:48:06.146Z,99824.54
2022-08-27T17:50:47.728Z,99823.67
2022-08-27T17:53:21.457Z,99827.21
2022-08-27T17:55:55.676Z,99829.41
2022-08-27T17:58:29.596Z,99830.55
2022-08-27T18:01:03.587Z,99836.88
2022-08-27T18:03:47.582Z,99839.05
2022-08-27T18:06:43.222Z,99839.35
2022-08-27T18:09:17.025Z,99841.86
2022-08-27T18:11:51.430Z,99843.63
2022-08-27T18:14:28.374Z,99846.29
2022-08-27T18:17:02.002Z,99849.60
2022-08-27T18:19:37.820Z,99849.73
2022-08-27T18:22:12.105Z,99853.36
2022-08-27T18:24:46.424Z,99850.90
2022-08-27T18:27:28.124Z,99849.14
2022-08-27T18:30:02.489Z,99857.79
2022-08-27T18:32:35.850Z,99855.16
2022-08-27T18:35:15.384Z,99859.21
2022-08-27T18:37:48.858Z,99860.50
2022-08-27T18:40:26.230Z,99860.84
2022-08-27T18:43:04.150Z,99864.60
2022-08-27T18:45:38.158Z,99870.25
2022-08-27T18:48:17.030Z,99870.69
2022-08-27T18:50:54.782Z,99877.41
2022-08-27T18:53:40.056Z,99877.74
2022-08-27T18:56:21.339Z,99875.33
2022-08-27T18:59:04.603Z,99880.58
2022-08-27T19:01:38.027Z,99884.87
2022-08-27T19:04:16.861Z,99890.67
2022-08-27T19:06:51.031Z,99893.45
2022-08-27T19:09:24.849Z,99891.58
2022-08-27T19:11:58.542Z,99897.67
2022-08-27T19:14:32.709Z,99894.77
2022-08-27T19:17:06.741Z,99895.23
2022-08-27T19:19:40.162Z,99904.34
2022-08-27T19:22:13.751Z,99899.06
2022-08-27T19:24:48.182Z,99898.29
2022-08-27T19:27:25.118Z,99902.98
2022-08-27T19:29:59.738Z,99898.92
2022-08-27T19:32:33.477Z,99900.63
2022-08-27T19:35:08.348Z,99897.48
2022-08-27T19:37:52.588Z,99900.25
2022-08-27T19:40:36.531Z,99897.89
2022-08-27T19:43:10.853Z,99899.21
2022-08-27T19:45:44.990Z,99900.06
2022-08-27T19:48:18.679Z,99900.64
2022-08-27T19:50:52.511Z,99905.34
2022-08-27T19:53:29.523Z,99901.86
2022-08-27T19:56:10.444Z,99905.41
2022-08-27T19:58:44.979Z,99905.21
2022-08-27T20:01:18.973Z,99904.29
2022-08-27T20:03:52.661Z,99903.86
2022-08-27T20:06:31.978Z,99907.91
2022-08-27T20:09:16.059Z,99910.38
2022-08-27T20:11:50.919Z,99909.41
2022-08-27T20:14:25.351Z,99911.48
2022-08-27T20:17:01.749Z,99911.66
2022-08-27T20:19:36.360Z,99911.83
2022-08-27T20:22:10.085Z,99912.30
2022-08-27T20:24:43.383Z,99912.77
2022-08-27T20:27:17.007Z,99908.60
2022-08-27T20:29:50.681Z,99911.82
2022-08-27T20:32:27.993Z,99909.61
2022-08-27T20:35:03.525Z,99911.11
2022-08-27T20:37:41.982Z,99908.21
2022-08-27T20:40:19.736Z,99906.73
2022-08-27T20:42:53.637Z,99910.30
2022-08-27T20:45:27.994Z,99913.55
2022-08-27T20:48:12.459Z,99913.90
2022-08-27T20:50:45.995Z,99913.96
2022-08-27T20:53:19.747Z,99911.20
2022-08-27T20:56:13.626Z,99912.11
2022-08-27T20:59:05.092Z,99910.08
2022-08-27T21:01:39.339Z,99911.37
2022-08-27T21:04:13.096Z,99914.27
2022-08-27T21:06:46.820Z,99914.66
2022-08-27T21:09:20.112Z,99910.45
2022-08-27T21:11:54.147Z,99910.16
2022-08-27T21:14:27.856Z,99908.96
2022-08-27T21:17:01.707Z,99905.58
2022-08-27T21:19:38.562Z,99900.52
2022-08-27T21:22:11.948Z,99903.41
2022-08-27T21:24:46.617Z,99898.87
2022-08-27T21:27:22.230Z,99901.48
2022-08-27T21:29:56.191Z,99897.90
2022-08-27T21:32:29.862Z,99897.67
2022-08-27T21:35:03.193Z,99897.12
2022-08-27T21:37:48.517Z,99897.09
2022-08-27T21:40:23.153Z,99895.20
2022-08-27T21:42:57.991Z,99896.48
2022-08-27T21:45:31.850Z,99897.68
2022-08-27T21:48:06.067Z,99895.73
2022-08-27T21:50:40.298Z,99896.00
2022-08-27T21:53:14.077Z,99892.82
2022-08-27T21:55:48.671Z,99897.05
2022-08-27T21:58:26.878Z,99896.34
2022-08-27T22:01:02.085Z,99896.05
2022-08-27T22:03:36.932Z,99893.58
2022-08-27T22:06:13.650Z,99893.48
2022-08-27T22:08:47.648Z,99895.48
2022-08-27T22:11:30.787Z,99894.90
2022-08-27T22:14:04.571Z,99885.81
2022-08-27T22:16:41.120Z,99884.73
2022-08-27T22:19:14.719Z,99881.80
2022-08-27T22:21:48.442Z,99882.05
2022-08-27T22:24:21.998Z,99880.91
2022-08-27T22:26:55.913Z,99879.23
2022-08-27T22:29:32.053Z,99882.96
2022-08-27T22:32:07.990Z,99879.76
2022-08-27T22:34:41.513Z,99882.11
2022-08-27T22:37:15.114Z,99878.37
2022-08-27T22:39:48.995Z,99879.27
2022-08-27T22:42:23.291Z,99880.31
2022-08-27T22:44:59.427Z,99878.10
2022-08-27T22:47:32.906Z,99874.31
2022-08-27T22:50:09.367Z,99874.38
2022-08-27T22:52:46.798Z,99870.10
2022-08-27T22:55:22.256Z,99871.06
2022-08-27T22:57:57.069Z,99868.30
2022-08-27T23:00:32.148Z,99870.20
2022-08-27T23:03:07.418Z,99870.96
2022-08-27T23:05:41.982Z,99868.73
2022-08-27T23:08:20.088Z,99867.06
2022-08-27T23:10:55.186Z,99870.98
2022-08-27T23:13:29.980Z,99871.88
2022-08-27T23:16:04.565Z,99871.09
2022-08-27T23:18:42.071Z,99869.95
2022-08-27T23:21:15.786Z,99869.77
2022-08-27T23:23:53.367Z,99867.82
2022-08-27T23:26:44.858Z,99869.02
2022-08-27T23:29:18.546Z,99868.42
2022-08-27T23:31:52.723Z,99865.77
2022-08-27T23:34:26.399Z,99864.55
2022-08-27T23:36:59.971Z,99864.15
2022-08-27T23:39:33.699Z,99860.92
2022-08-27T23:42:08.259Z,99859.05
2022-08-27T23:44:42.069Z,99858.32
2022-08-27T23:47:18.556Z,99861.48
2022-08-27T23:49:52.339Z,99855.57
2022-08-27T23:52:25.950Z,99857.23
2022-08-27T23:54:59.818Z,99858.83
2022-08-27T23:57:58.006Z,99856.35
